createdAt,value
2018-11-25T00:01:13.516Z,4.80
2018-11-25T00:03:41.143Z,4.80
2018-11-25T00:06:08.517Z,4.90
2018-11-25T00:08:36.078Z,4.80
2018-11-25T00:11:03.524Z,4.80
2018-11-25T00:13:30.939Z,4.80
2018-11-25T00:15:58.300Z,4.80
2018-11-25T00:18:25.724Z,4.80
2018-11-25T00:20:53.240Z,4.70
2018-11-25T00:23:20.644Z,4.80
2018-11-25T00:25:48.095Z,4.70
2018-11-25T00:28:16.243Z,4.80
2018-11-25T00:30:43.930Z,4.80
2018-11-25T00:33:11.499Z,4.80
2018-11-25T00:35:39.001Z,4.80
2018-11-25T00:38:07.292Z,4.70
2018-11-25T00:40:34.779Z,4.70
2018-11-25T00:43:02.218Z,4.70
2018-11-25T00:45:29.580Z,4.60
2018-11-25T00:47:56.924Z,4.60
2018-11-25T00:50:24.300Z,4.60
2018-11-25T00:52:52.664Z,4.60
2018-11-25T00:55:20.036Z,4.60
2018-11-25T00:57:47.478Z,4.60
2018-11-25T01:00:16.193Z,4.60
2018-11-25T01:02:43.773Z,4.60
2018-11-25T01:05:11.264Z,4.50
2018-11-25T01:07:38.720Z,4.50
2018-11-25T01:10:07.175Z,4.40
2018-11-25T01:12:34.575Z,4.40
2018-11-25T01:15:01.944Z,4.40
2018-11-25T01:17:30.800Z,4.30
2018-11-25T01:19:58.146Z,4.20
2018-11-25T01:22:26.403Z,4.10
2018-11-25T01:24:53.836Z,4.00
2018-11-25T01:27:21.272Z,4.00
2018-11-25T01:29:48.749Z,4.00
2018-11-25T01:32:16.192Z,4.00
2018-11-25T01:34:43.663Z,4.10
2018-11-25T01:37:11.104Z,4.10
2018-11-25T01:39:38.487Z,4.20
2018-11-25T01:42:06.528Z,4.30
2018-11-25T01:44:33.904Z,4.30
2018-11-25T01:47:01.361Z,4.40
2018-11-25T01:49:28.717Z,4.50
2018-11-25T01:51:56.155Z,4.50
2018-11-25T01:54:23.522Z,4.50
2018-11-25T01:56:51.896Z,4.60
2018-11-25T01:59:19.788Z,4.60
2018-11-25T02:01:47.168Z,4.60
2018-11-25T02:04:14.579Z,4.60
2018-11-25T02:06:42.043Z,4.60
2018-11-25T02:09:09.503Z,4.60
2018-11-25T02:11:36.953Z,4.60
2018-11-25T02:14:04.565Z,4.60
2018-11-25T02:16:32.676Z,4.60
2018-11-25T02:19:00.047Z,4.60
2018-11-25T02:21:27.487Z,4.70
2018-11-25T02:23:54.870Z,4.60
2018-11-25T02:26:22.305Z,4.60
2018-11-25T02:28:49.667Z,4.70
2018-11-25T02:31:17.124Z,4.70
2018-11-25T02:33:44.484Z,4.70
2018-11-25T02:36:11.928Z,4.70
2018-11-25T02:38:39.304Z,4.70
2018-11-25T02:41:07.391Z,4.70
2018-11-25T02:43:34.844Z,4.80
2018-11-25T02:46:02.269Z,4.80
2018-11-25T02:48:29.642Z,4.80
2018-11-25T02:50:57.092Z,4.80
2018-11-25T02:53:24.482Z,4.80
2018-11-25T02:55:51.932Z,4.80
2018-11-25T02:58:19.377Z,4.80
2018-11-25T03:00:46.834Z,4.90
2018-11-25T03:03:14.283Z,4.90
2018-11-25T03:05:41.733Z,4.80
2018-11-25T03:08:09.073Z,4.70
2018-11-25T03:10:36.460Z,4.60
2018-11-25T03:13:03.909Z,4.50
2018-11-25T03:15:32.302Z,4.50
2018-11-25T03:17:59.740Z,4.50
2018-11-25T03:20:27.167Z,4.50
2018-11-25T03:22:54.551Z,4.60
2018-11-25T03:25:21.920Z,4.60
2018-11-25T03:27:49.276Z,4.60
2018-11-25T03:30:17.652Z,4.60
2018-11-25T03:32:45.537Z,4.60
2018-11-25T03:35:13.251Z,4.70
2018-11-25T03:37:40.657Z,4.70
2018-11-25T03:40:09.660Z,4.70
2018-11-25T03:42:37.075Z,4.80
2018-11-25T03:45:05.528Z,4.70
2018-11-25T03:47:32.908Z,4.80
2018-11-25T03:50:00.648Z,4.80
2018-11-25T03:52:28.050Z,4.80
2018-11-25T03:54:55.534Z,4.80
2018-11-25T03:57:22.956Z,4.80
2018-11-25T03:59:50.329Z,4.80
2018-11-25T04:02:17.774Z,4.80
2018-11-25T04:04:45.261Z,4.80
2018-11-25T04:07:12.726Z,4.80
2018-11-25T04:09:40.192Z,4.90
2018-11-25T04:12:08.103Z,4.90
2018-11-25T04:14:35.497Z,4.90
2018-11-25T04:17:02.928Z,4.90
2018-11-25T04:19:30.373Z,5.00
2018-11-25T04:21:57.753Z,5.00
2018-11-25T04:24:25.183Z,5.00
2018-11-25T04:26:52.576Z,5.00
2018-11-25T04:29:20.014Z,5.00
2018-11-25T04:31:47.472Z,5.10
2018-11-25T04:34:14.813Z,5.10
2018-11-25T04:36:42.187Z,5.10
2018-11-25T04:39:10.171Z,5.10
2018-11-25T04:41:37.536Z,5.00
2018-11-25T04:44:04.883Z,5.00
2018-11-25T04:46:32.362Z,5.00
2018-11-25T04:48:59.684Z,5.00
2018-11-25T04:51:27.060Z,5.00
2018-11-25T04:53:56.730Z,5.00
2018-11-25T04:56:24.112Z,5.00
2018-11-25T04:58:51.549Z,5.00
2018-11-25T05:01:19.112Z,5.00
2018-11-25T05:03:46.573Z,5.00
2018-11-25T05:06:13.926Z,5.10
2018-11-25T05:08:41.382Z,5.00
2018-11-25T05:11:08.731Z,5.00
2018-11-25T05:13:36.143Z,5.00
2018-11-25T05:16:03.487Z,5.00
2018-11-25T05:18:30.824Z,5.10
2018-11-25T05:20:58.368Z,5.00
2018-11-25T05:23:25.816Z,5.10
2018-11-25T05:25:53.193Z,5.10
2018-11-25T05:28:20.653Z,5.10
2018-11-25T05:30:48.125Z,5.10
2018-11-25T05:33:15.552Z,5.10
2018-11-25T05:35:43.026Z,5.10
2018-11-25T05:38:10.467Z,5.10
2018-11-25T05:40:37.848Z,5.10
2018-11-25T05:43:05.267Z,5.10
2018-11-25T05:45:32.666Z,5.10
2018-11-25T05:48:00.095Z,5.10
2018-11-25T05:50:27.544Z,5.10
2018-11-25T05:52:55.012Z,5.10
2018-11-25T05:55:22.464Z,5.10
2018-11-25T05:57:50.056Z,5.20
2018-11-25T06:00:18.724Z,5.20
2018-11-25T06:02:46.182Z,5.20
2018-11-25T06:05:14.107Z,5.20
2018-11-25T06:07:41.515Z,5.20
2018-11-25T06:10:09.601Z,5.20
2018-11-25T06:12:37.023Z,5.20
2018-11-25T06:15:05.165Z,5.20
2018-11-25T06:17:32.560Z,5.20
2018-11-25T06:20:00.717Z,5.20
2018-11-25T06:22:28.113Z,5.20
2018-11-25T06:24:55.536Z,5.20
2018-11-25T06:27:22.897Z,5.20
2018-11-25T06:29:50.252Z,5.20
2018-11-25T06:32:17.613Z,5.20
2018-11-25T06:34:45.056Z,5.20
2018-11-25T06:37:12.428Z,5.20
2018-11-25T06:39:39.849Z,5.20
2018-11-25T06:42:07.205Z,5.20
2018-11-25T06:44:34.616Z,5.20
2018-11-25T06:47:02.057Z,5.20
2018-11-25T06:49:29.536Z,5.20
2018-11-25T06:51:56.972Z,5.20
2018-11-25T06:54:24.408Z,5.20
2018-11-25T06:56:51.823Z,5.20
2018-11-25T06:59:19.165Z,5.20
2018-11-25T07:01:46.605Z,5.20
2018-11-25T07:04:13.945Z,5.20
2018-11-25T07:06:41.408Z,5.20
2018-11-25T07:09:09.965Z,5.20
2018-11-25T07:11:37.128Z,5.20
2018-11-25T07:14:04.852Z,5.20
2018-11-25T07:16:32.244Z,5.20
2018-11-25T07:18:59.618Z,5.20
2018-11-25T07:21:26.961Z,5.20
2018-11-25T07:23:54.331Z,5.30
2018-11-25T07:26:21.708Z,5.20
2018-11-25T07:28:49.088Z,5.30
2018-11-25T07:31:16.416Z,5.20
2018-11-25T07:33:43.848Z,5.20
2018-11-25T07:36:11.297Z,5.20
2018-11-25T07:38:38.671Z,5.20
2018-11-25T07:41:06.221Z,5.20
2018-11-25T07:43:33.633Z,5.30
2018-11-25T07:46:02.430Z,5.30
2018-11-25T07:48:28.627Z,5.40
2018-11-25T07:50:56.539Z,5.40
2018-11-25T07:53:23.912Z,5.40
2018-11-25T07:55:51.265Z,5.50
2018-11-25T07:58:18.636Z,5.50
2018-11-25T08:00:46.080Z,5.50
2018-11-25T08:03:13.473Z,5.60
2018-11-25T08:05:40.936Z,5.60
2018-11-25T08:08:08.381Z,5.60
2018-11-25T08:10:35.799Z,5.70
2018-11-25T08:13:03.178Z,5.70
2018-11-25T08:15:30.621Z,5.70
2018-11-25T08:17:57.988Z,5.70
2018-11-25T08:20:25.439Z,5.70
2018-11-25T08:22:52.792Z,5.70
2018-11-25T08:25:20.561Z,5.70
2018-11-25T08:27:48.072Z,5.70
2018-11-25T08:30:22.681Z,5.70
2018-11-25T08:32:50.272Z,5.70
2018-11-25T08:35:17.804Z,5.80
2018-11-25T08:37:45.247Z,5.90
2018-11-25T08:40:15.013Z,5.90
2018-11-25T08:42:42.389Z,6.00
2018-11-25T08:45:11.946Z,6.10
2018-11-25T08:47:39.371Z,6.20
2018-11-25T08:50:09.284Z,6.30
2018-11-25T08:52:36.640Z,6.30
2018-11-25T08:55:04.237Z,6.40
2018-11-25T08:57:31.837Z,6.40
2018-11-25T08:59:59.209Z,6.40
2018-11-25T09:02:26.705Z,6.40
2018-11-25T09:04:54.066Z,6.40
2018-11-25T09:07:21.469Z,6.40
2018-11-25T09:09:48.870Z,6.50
2018-11-25T09:12:16.283Z,6.60
2018-11-25T09:14:43.753Z,6.60
2018-11-25T09:17:11.229Z,6.60
2018-11-25T09:19:38.782Z,6.80
2018-11-25T09:22:06.247Z,6.90
2018-11-25T09:24:33.781Z,7.00
2018-11-25T09:27:01.306Z,7.10
2018-11-25T09:29:28.700Z,7.30
2018-11-25T09:31:56.045Z,7.30
2018-11-25T09:34:23.409Z,7.30
2018-11-25T09:36:51.294Z,7.20
2018-11-25T09:39:18.644Z,7.30
2018-11-25T09:41:45.987Z,7.30
2018-11-25T09:44:13.459Z,7.20
2018-11-25T09:46:42.733Z,7.20
2018-11-25T09:49:08.657Z,7.20
2018-11-25T09:51:36.049Z,7.20
2018-11-25T09:54:03.472Z,7.20
2018-11-25T09:56:30.933Z,7.10
2018-11-25T09:58:58.316Z,7.20
2018-11-25T10:01:25.663Z,7.20
2018-11-25T10:03:53.017Z,7.20
2018-11-25T10:06:20.353Z,7.20
2018-11-25T10:08:47.820Z,7.10
2018-11-25T10:11:15.262Z,7.10
2018-11-25T10:13:42.816Z,7.10
2018-11-25T10:16:10.161Z,7.10
2018-11-25T10:18:37.566Z,7.10
2018-11-25T10:21:05.000Z,7.30
2018-11-25T10:23:32.480Z,7.30
2018-11-25T10:25:59.840Z,7.40
2018-11-25T10:28:27.301Z,7.50
2018-11-25T10:30:54.657Z,7.50
2018-11-25T10:33:22.078Z,7.50
2018-11-25T10:35:49.424Z,7.60
2018-11-25T10:38:16.784Z,7.50
2018-11-25T10:40:44.136Z,7.50
2018-11-25T10:43:11.504Z,7.50
2018-11-25T10:45:39.035Z,7.50
2018-11-25T10:48:06.481Z,7.50
2018-11-25T10:50:34.073Z,7.40
2018-11-25T10:53:01.433Z,7.40
2018-11-25T10:55:28.817Z,7.40
2018-11-25T10:57:56.708Z,7.50
2018-11-25T11:00:31.381Z,7.60
2018-11-25T11:03:04.343Z,7.60
2018-11-25T11:05:37.352Z,7.60
2018-11-25T11:08:05.167Z,7.60
2018-11-25T11:10:32.611Z,7.60
2018-11-25T11:13:00.038Z,7.60
2018-11-25T11:15:27.508Z,7.60
2018-11-25T11:17:54.850Z,7.70
2018-11-25T11:20:23.137Z,7.70
2018-11-25T11:22:50.636Z,7.60
2018-11-25T11:25:18.383Z,7.60
2018-11-25T11:27:45.832Z,7.60
2018-11-25T11:30:13.274Z,7.50
2018-11-25T11:32:41.389Z,7.50
2018-11-25T11:35:08.860Z,7.50
2018-11-25T11:37:36.496Z,7.60
2018-11-25T11:40:05.202Z,7.50
2018-11-25T11:42:32.603Z,7.60
2018-11-25T11:44:59.977Z,7.60
2018-11-25T11:47:27.573Z,7.60
2018-11-25T11:49:55.009Z,7.60
2018-11-25T11:52:22.434Z,7.60
2018-11-25T11:54:49.805Z,7.60
2018-11-25T11:57:17.240Z,7.50
2018-11-25T11:59:44.592Z,7.50
2018-11-25T12:02:12.001Z,7.40
2018-11-25T12:04:39.412Z,7.40
2018-11-25T12:07:06.783Z,7.50
2018-11-25T12:09:34.220Z,7.50
2018-11-25T12:12:01.986Z,7.50
2018-11-25T12:14:29.665Z,7.60
2018-11-25T12:16:57.189Z,7.50
2018-11-25T12:19:24.893Z,7.50
2018-11-25T12:21:58.080Z,7.40
2018-11-25T12:24:20.204Z,7.40
2018-11-25T12:26:47.565Z,7.30
2018-11-25T12:29:15.008Z,7.30
2018-11-25T12:31:42.396Z,7.30
2018-11-25T12:34:09.833Z,7.30
2018-11-25T12:36:37.309Z,7.30
2018-11-25T12:39:06.832Z,7.20
2018-11-25T12:41:34.294Z,7.30
2018-11-25T12:44:01.736Z,7.30
2018-11-25T12:46:29.097Z,7.30
2018-11-25T12:48:56.519Z,7.20
2018-11-25T12:51:23.894Z,7.20
2018-11-25T12:53:51.241Z,7.20
2018-11-25T12:56:18.753Z,7.20
2018-11-25T12:58:46.253Z,7.20
2018-11-25T13:01:14.440Z,7.10
2018-11-25T13:03:41.824Z,7.10
2018-11-25T13:06:09.274Z,7.10
2018-11-25T13:08:36.700Z,7.00
2018-11-25T13:11:04.168Z,7.10
2018-11-25T13:13:31.612Z,7.10
2018-11-25T13:15:59.069Z,7.10
2018-11-25T13:18:26.589Z,7.10
2018-11-25T13:20:54.006Z,7.10
2018-11-25T13:23:21.483Z,7.00
2018-11-25T13:25:48.925Z,7.00
2018-11-25T13:28:16.310Z,7.10
2018-11-25T13:30:43.776Z,7.00
2018-11-25T13:33:11.192Z,7.00
2018-11-25T13:35:39.213Z,7.00
2018-11-25T13:38:06.777Z,7.00
2018-11-25T13:40:34.116Z,7.00
2018-11-25T13:43:01.538Z,7.00
2018-11-25T13:45:29.004Z,7.00
2018-11-25T13:47:56.500Z,6.90
2018-11-25T13:50:23.948Z,6.90
2018-11-25T13:52:51.335Z,6.90
2018-11-25T13:55:20.592Z,6.90
2018-11-25T13:57:48.025Z,6.90
2018-11-25T14:00:20.633Z,6.90
2018-11-25T14:02:48.003Z,6.90
2018-11-25T14:05:16.071Z,6.90
2018-11-25T14:07:43.506Z,6.80
2018-11-25T14:10:12.363Z,6.80
2018-11-25T14:12:39.836Z,6.80
2018-11-25T14:15:08.766Z,6.80
2018-11-25T14:17:36.185Z,6.80
2018-11-25T14:20:04.411Z,6.70
2018-11-25T14:22:31.812Z,6.70
2018-11-25T14:24:59.249Z,6.70
2018-11-25T14:27:26.618Z,6.70
2018-11-25T14:29:54.058Z,6.70
2018-11-25T14:32:21.439Z,6.60
2018-11-25T14:34:49.292Z,6.60
2018-11-25T14:37:16.884Z,6.60
2018-11-25T14:39:44.285Z,6.50
2018-11-25T14:42:11.732Z,6.50
2018-11-25T14:44:39.163Z,6.50
2018-11-25T14:47:06.614Z,6.50
2018-11-25T14:49:34.034Z,6.50
2018-11-25T14:52:01.408Z,6.50
2018-11-25T14:54:28.867Z,6.50
2018-11-25T14:56:56.317Z,6.50
2018-11-25T14:59:23.709Z,6.50
2018-11-25T15:01:51.275Z,6.50
2018-11-25T15:04:18.685Z,6.50
2018-11-25T15:06:46.145Z,6.40
2018-11-25T15:09:13.909Z,6.40
2018-11-25T15:11:41.361Z,6.50
2018-11-25T15:14:08.743Z,6.40
2018-11-25T15:16:36.628Z,6.40
2018-11-25T15:19:04.603Z,6.50
2018-11-25T15:21:32.013Z,6.50
2018-11-25T15:23:59.494Z,6.50
2018-11-25T15:26:27.043Z,6.50
2018-11-25T15:28:54.520Z,6.40
2018-11-25T15:31:21.942Z,6.40
2018-11-25T15:33:49.348Z,6.40
2018-11-25T15:36:17.274Z,6.40
2018-11-25T15:38:44.811Z,6.40
2018-11-25T15:41:12.145Z,6.40
2018-11-25T15:43:39.590Z,6.40
2018-11-25T15:46:07.002Z,6.40
2018-11-25T15:48:34.497Z,6.40
2018-11-25T15:51:01.945Z,6.40
2018-11-25T15:53:29.446Z,6.40
2018-11-25T15:55:57.690Z,6.40
2018-11-25T15:58:25.151Z,6.40
2018-11-25T16:00:52.632Z,6.40
2018-11-25T16:03:20.107Z,6.40
2018-11-25T16:05:48.565Z,6.40
2018-11-25T16:08:15.953Z,6.50
2018-11-25T16:10:43.356Z,6.50
2018-11-25T16:13:10.807Z,6.50
2018-11-25T16:15:38.234Z,6.50
2018-11-25T16:18:06.867Z,6.50
2018-11-25T16:20:34.222Z,6.50
2018-11-25T16:23:02.320Z,6.50
2018-11-25T16:25:32.948Z,6.30
2018-11-25T16:28:01.439Z,6.30
2018-11-25T16:30:28.788Z,6.20
2018-11-25T16:32:56.381Z,6.20
2018-11-25T16:35:23.931Z,6.20
2018-11-25T16:37:51.322Z,6.20
2018-11-25T16:40:18.789Z,6.20
2018-11-25T16:42:46.206Z,6.10
2018-11-25T16:45:15.269Z,6.10
2018-11-25T16:47:42.676Z,6.10
2018-11-25T16:50:10.946Z,6.10
2018-11-25T16:52:38.574Z,6.00
2018-11-25T16:55:07.724Z,6.00
2018-11-25T16:57:35.160Z,6.00
2018-11-25T17:00:02.798Z,6.10
2018-11-25T17:02:30.301Z,6.10
2018-11-25T17:04:57.759Z,6.10
2018-11-25T17:07:25.185Z,6.10
2018-11-25T17:09:52.581Z,6.10
2018-11-25T17:12:20.593Z,6.00
2018-11-25T17:14:47.996Z,6.00
2018-11-25T17:17:15.441Z,6.00
2018-11-25T17:19:42.958Z,6.00
2018-11-25T17:22:10.332Z,6.00
2018-11-25T17:24:37.728Z,6.00
2018-11-25T17:27:05.356Z,6.00
2018-11-25T17:29:32.748Z,5.90
2018-11-25T17:32:00.875Z,5.90
2018-11-25T17:34:28.301Z,5.90
2018-11-25T17:36:55.733Z,5.90
2018-11-25T17:39:23.188Z,5.90
2018-11-25T17:41:50.618Z,5.90
2018-11-25T17:44:18.925Z,5.90
2018-11-25T17:46:46.358Z,5.80
2018-11-25T17:49:13.884Z,5.80
2018-11-25T17:51:41.261Z,5.80
2018-11-25T17:54:08.694Z,5.80
2018-11-25T17:56:36.152Z,5.80
2018-11-25T17:59:03.576Z,5.80
2018-11-25T18:01:30.997Z,5.80
2018-11-25T18:03:58.388Z,5.80
2018-11-25T18:06:25.771Z,5.70
2018-11-25T18:08:53.185Z,5.70
2018-11-25T18:11:20.697Z,5.70
2018-11-25T18:13:48.113Z,5.70
2018-11-25T18:16:15.528Z,5.70
2018-11-25T18:18:46.805Z,5.70
2018-11-25T18:21:15.415Z,5.70
2018-11-25T18:23:42.903Z,5.80
2018-11-25T18:26:10.278Z,5.80
2018-11-25T18:28:37.676Z,5.80
2018-11-25T18:31:06.024Z,5.90
2018-11-25T18:33:33.520Z,5.90
2018-11-25T18:36:00.928Z,5.90
2018-11-25T18:38:28.284Z,5.90
2018-11-25T18:40:55.736Z,5.90
2018-11-25T18:43:23.163Z,5.80
2018-11-25T18:45:54.437Z,5.90
2018-11-25T18:48:18.228Z,5.80
2018-11-25T18:50:45.672Z,5.70
2018-11-25T18:53:13.098Z,5.70
2018-11-25T18:55:40.053Z,5.60
2018-11-25T18:58:07.518Z,5.50
2018-11-25T19:04:06.733Z,5.50
2018-11-25T19:06:34.164Z,5.50
2018-11-25T19:09:01.596Z,5.50
2018-11-25T19:11:29.038Z,5.50
2018-11-25T19:13:56.541Z,5.60
2018-11-25T19:16:23.940Z,5.50
2018-11-25T19:18:51.333Z,5.50
2018-11-25T19:21:18.885Z,5.50
2018-11-25T19:23:46.416Z,5.50
2018-11-25T19:26:13.805Z,5.50
2018-11-25T19:28:41.261Z,5.50
2018-11-25T19:31:08.694Z,5.50
2018-11-25T19:33:36.185Z,5.60
2018-11-25T19:36:03.683Z,5.60
2018-11-25T19:38:31.115Z,5.60
2018-11-25T19:40:58.516Z,5.60
2018-11-25T19:43:25.945Z,5.60
2018-11-25T19:45:53.402Z,5.60
2018-11-25T19:48:21.440Z,5.60
2018-11-25T19:50:48.869Z,5.60
2018-11-25T19:53:16.249Z,5.50
2018-11-25T19:55:43.684Z,5.50
2018-11-25T19:58:11.073Z,5.50
2018-11-25T20:00:38.497Z,5.40
2018-11-25T20:03:06.398Z,5.30
2018-11-25T20:05:33.863Z,5.30
2018-11-25T20:08:02.813Z,5.20
2018-11-25T20:10:28.850Z,5.20
2018-11-25T20:12:56.888Z,5.20
2018-11-25T20:15:24.308Z,5.20
2018-11-25T20:17:54.309Z,5.20
2018-11-25T20:20:20.080Z,5.20
2018-11-25T20:22:47.665Z,5.30
2018-11-25T20:25:15.412Z,5.30
2018-11-25T20:27:57.413Z,5.30
2018-11-25T20:30:26.258Z,5.20
2018-11-25T20:32:59.126Z,5.20
2018-11-25T20:35:26.561Z,5.20
2018-11-25T20:37:59.748Z,5.20
2018-11-25T20:40:27.109Z,5.20
2018-11-25T20:42:54.585Z,5.20
2018-11-25T20:45:28.162Z,5.20
2018-11-25T20:47:56.338Z,5.20
2018-11-25T20:50:23.753Z,5.20
2018-11-25T20:52:56.797Z,5.20
2018-11-25T20:55:24.247Z,5.20
2018-11-25T20:57:51.641Z,5.20
2018-11-25T21:00:20.545Z,5.30
2018-11-25T21:02:48.033Z,5.30
2018-11-25T21:05:15.748Z,5.30
2018-11-25T21:07:43.165Z,5.30
2018-11-25T21:10:13.883Z,5.30
2018-11-25T21:12:41.706Z,5.30
2018-11-25T21:15:09.674Z,5.20
2018-11-25T21:17:37.095Z,5.20
2018-11-25T21:20:07.083Z,5.20
2018-11-25T21:22:34.505Z,5.20
2018-11-25T21:25:01.954Z,5.20
2018-11-25T21:27:29.389Z,5.20
2018-11-25T21:29:57.055Z,5.10
2018-11-25T21:32:24.404Z,5.10
2018-11-25T21:34:51.792Z,5.10
2018-11-25T21:37:19.373Z,5.00
2018-11-25T21:39:46.820Z,5.00
2018-11-25T21:42:14.224Z,5.00
2018-11-25T21:44:41.625Z,5.00
2018-11-25T21:47:09.039Z,5.00
2018-11-25T21:49:36.412Z,5.00
2018-11-25T21:52:03.930Z,5.00
2018-11-25T21:54:31.392Z,5.00
2018-11-25T21:56:58.763Z,5.00
2018-11-25T21:59:26.158Z,5.00
2018-11-25T22:01:53.725Z,4.90
2018-11-25T22:04:21.148Z,5.00
2018-11-25T22:06:48.574Z,4.90
2018-11-25T22:09:15.977Z,4.90
2018-11-25T22:11:43.421Z,4.90
2018-11-25T22:14:10.888Z,4.80
2018-11-25T22:16:38.340Z,4.80
2018-11-25T22:19:06.089Z,4.80
2018-11-25T22:21:33.456Z,4.80
2018-11-25T22:24:00.919Z,4.80
2018-11-25T22:26:28.402Z,4.80
2018-11-25T22:28:55.841Z,4.80
2018-11-25T22:31:23.282Z,4.80
2018-11-25T22:33:50.656Z,4.80
2018-11-25T22:36:18.113Z,4.80
2018-11-25T22:38:45.584Z,4.80
2018-11-25T22:41:13.027Z,4.80
2018-11-25T22:43:40.464Z,4.80
2018-11-25T22:46:07.837Z,4.80
2018-11-25T22:48:35.318Z,4.80
2018-11-25T22:51:02.758Z,4.70
2018-11-25T22:53:30.233Z,4.80
2018-11-25T22:55:57.664Z,4.70
2018-11-25T22:58:25.180Z,4.70
2018-11-25T23:00:52.844Z,4.70
2018-11-25T23:03:20.580Z,4.60
2018-11-25T23:05:53.609Z,4.60
2018-11-25T23:08:21.061Z,4.60
2018-11-25T23:10:48.443Z,4.60
2018-11-25T23:13:15.811Z,4.50
2018-11-25T23:15:43.169Z,4.50
2018-11-25T23:18:10.604Z,4.50
2018-11-25T23:20:37.980Z,4.50
2018-11-25T23:23:05.871Z,4.40
2018-11-25T23:25:33.325Z,4.40
2018-11-25T23:28:00.748Z,4.40
2018-11-25T23:30:28.124Z,4.40
2018-11-25T23:32:55.616Z,4.40
2018-11-25T23:35:23.694Z,4.30
2018-11-25T23:37:51.095Z,4.30
2018-11-25T23:40:18.495Z,4.20
2018-11-25T23:42:46.248Z,4.10
2018-11-25T23:45:14.016Z,4.00
2018-11-25T23:47:41.450Z,4.00
2018-11-25T23:50:09.550Z,3.90
2018-11-25T23:52:37.126Z,3.80
2018-11-25T23:55:05.445Z,3.70
2018-11-25T23:57:33.166Z,3.60
